createdAt,value
2022-09-10T00:00:54.454Z,13.27
2022-09-10T00:01:54.470Z,13.25
2022-09-10T00:02:54.462Z,13.27
2022-09-10T00:03:54.372Z,13.15
2022-09-10T00:04:54.387Z,13.22
2022-09-10T00:05:54.361Z,13.25
2022-09-10T00:06:54.315Z,13.23
2022-09-10T00:07:54.292Z,13.25
2022-09-10T00:08:54.271Z,13.30
2022-09-10T00:09:54.254Z,13.30
2022-09-10T00:10:54.257Z,13.19
2022-09-10T00:11:54.213Z,13.27
2022-09-10T00:12:54.193Z,13.27
2022-09-10T00:13:54.175Z,13.30
2022-09-10T00:14:54.159Z,13.28
2022-09-10T00:15:54.181Z,13.22
2022-09-10T00:16:54.124Z,13.28
2022-09-10T00:17:54.102Z,13.22
2022-09-10T00:18:54.086Z,13.33
2022-09-10T00:19:54.067Z,13.27
2022-09-10T00:20:54.078Z,13.31
2022-09-10T00:21:54.028Z,13.27
2022-09-10T00:22:54.009Z,13.28
2022-09-10T00:23:54.012Z,13.25
2022-09-10T00:24:53.971Z,13.38
2022-09-10T00:25:53.985Z,13.28
2022-09-10T00:26:53.932Z,13.25
2022-09-10T00:27:53.915Z,13.25
2022-09-10T00:28:53.920Z,13.30
2022-09-10T00:29:53.871Z,13.30
2022-09-10T00:30:53.879Z,13.22
2022-09-10T00:31:53.833Z,13.33
2022-09-10T00:32:53.811Z,13.28
2022-09-10T00:33:53.824Z,13.28
2022-09-10T00:34:53.784Z,13.25
2022-09-10T00:35:53.788Z,13.30
2022-09-10T00:36:53.740Z,13.23
2022-09-10T00:37:53.723Z,13.31
2022-09-10T00:38:53.733Z,13.35
2022-09-10T00:39:53.700Z,13.23
2022-09-10T00:40:53.703Z,13.28
2022-09-10T00:41:53.652Z,13.22
2022-09-10T00:42:53.632Z,13.30
2022-09-10T00:43:53.636Z,13.25
2022-09-10T00:44:53.594Z,13.20
2022-09-10T00:45:53.624Z,13.20
2022-09-10T00:46:53.554Z,13.23
2022-09-10T00:47:53.542Z,13.19
2022-09-10T00:48:53.550Z,13.23
2022-09-10T00:49:53.509Z,13.28
2022-09-10T00:50:53.508Z,13.25
2022-09-10T00:51:53.464Z,13.27
2022-09-10T00:52:53.439Z,13.31
2022-09-10T00:53:53.428Z,13.23
2022-09-10T00:54:53.408Z,13.23
2022-09-10T00:55:53.419Z,13.28
2022-09-10T00:56:53.376Z,13.25
2022-09-10T00:57:53.354Z,13.19
2022-09-10T00:58:53.341Z,13.28
2022-09-10T00:59:53.318Z,13.27
2022-09-10T01:00:53.378Z,13.22
2022-09-10T01:01:53.304Z,13.28
2022-09-10T01:02:53.266Z,13.27
2022-09-10T01:03:53.246Z,13.13
2022-09-10T01:04:53.228Z,13.23
2022-09-10T01:05:53.236Z,13.19
2022-09-10T01:06:53.191Z,13.22
2022-09-10T01:07:53.171Z,13.22
2022-09-10T01:08:53.155Z,13.30
2022-09-10T01:09:53.138Z,13.20
2022-09-10T01:10:53.144Z,13.12
2022-09-10T01:11:53.099Z,13.12
2022-09-10T01:12:53.078Z,13.22
2022-09-10T01:13:53.058Z,13.15
2022-09-10T01:14:53.040Z,13.16
2022-09-10T01:15:53.070Z,13.09
2022-09-10T01:16:53.006Z,13.09
2022-09-10T01:17:52.984Z,13.11
2022-09-10T01:18:52.967Z,13.13
2022-09-10T01:19:52.949Z,13.18
2022-09-10T01:20:52.962Z,13.25
2022-09-10T01:21:52.909Z,13.20
2022-09-10T01:22:52.898Z,13.18
2022-09-10T01:23:52.873Z,13.25
2022-09-10T01:24:52.854Z,13.30
2022-09-10T01:25:52.863Z,13.27
2022-09-10T01:26:52.821Z,13.23
2022-09-10T01:27:52.799Z,13.30
2022-09-10T01:28:52.777Z,13.23
2022-09-10T01:29:52.761Z,13.23
2022-09-10T01:30:52.771Z,13.35
2022-09-10T01:31:52.725Z,13.31
2022-09-10T01:32:52.708Z,13.33
2022-09-10T01:33:52.690Z,13.30
2022-09-10T01:34:52.668Z,13.22
2022-09-10T01:35:52.678Z,13.15
2022-09-10T01:36:52.633Z,13.09
2022-09-10T01:37:52.617Z,13.18
2022-09-10T01:38:52.599Z,13.05
2022-09-10T01:39:52.625Z,13.13
2022-09-10T01:40:52.588Z,13.12
2022-09-10T01:41:52.543Z,13.09
2022-09-10T01:42:52.528Z,13.09
2022-09-10T01:43:52.510Z,13.12
2022-09-10T01:44:52.486Z,13.16
2022-09-10T01:45:52.566Z,13.22
2022-09-10T01:46:52.452Z,13.13
2022-09-10T01:47:52.439Z,13.11
2022-09-10T01:48:52.416Z,13.13
2022-09-10T01:49:52.395Z,13.12
2022-09-10T01:50:52.406Z,13.13
2022-09-10T01:51:52.363Z,13.19
2022-09-10T01:52:52.332Z,13.20
2022-09-10T01:53:53.321Z,13.23
2022-09-10T01:54:52.308Z,13.19
2022-09-10T01:55:52.312Z,13.20
2022-09-10T01:56:52.269Z,13.22
2022-09-10T01:57:52.251Z,13.16
2022-09-10T01:58:52.232Z,13.31
2022-09-10T01:59:52.211Z,13.27
2022-09-10T02:00:52.246Z,13.20
2022-09-10T02:01:52.238Z,13.23
2022-09-10T02:02:52.167Z,13.23
2022-09-10T02:03:52.151Z,13.15
2022-09-10T02:04:52.126Z,13.16
2022-09-10T02:05:52.128Z,13.20
2022-09-10T02:06:52.081Z,13.23
2022-09-10T02:07:52.065Z,13.25
2022-09-10T02:08:52.048Z,13.22
2022-09-10T02:09:52.029Z,13.12
2022-09-10T02:10:52.035Z,13.11
2022-09-10T02:11:51.993Z,13.13
2022-09-10T02:12:51.976Z,13.12
2022-09-10T02:13:51.959Z,13.23
2022-09-10T02:14:51.940Z,13.30
2022-09-10T02:15:51.950Z,13.19
2022-09-10T02:16:51.903Z,13.20
2022-09-10T02:17:51.885Z,13.23
2022-09-10T02:18:51.864Z,13.22
2022-09-10T02:19:51.849Z,13.30
2022-09-10T02:20:51.859Z,13.25
2022-09-10T02:21:51.811Z,13.22
2022-09-10T02:22:51.793Z,13.22
2022-09-10T02:23:51.775Z,13.22
2022-09-10T02:24:51.758Z,13.16
2022-09-10T02:25:51.765Z,13.20
2022-09-10T02:26:51.721Z,13.25
2022-09-10T02:27:51.711Z,13.27
2022-09-10T02:28:51.688Z,13.22
2022-09-10T02:29:51.667Z,13.28
2022-09-10T02:30:51.673Z,13.13
2022-09-10T02:31:51.640Z,13.22
2022-09-10T02:32:51.608Z,13.20
2022-09-10T02:33:51.590Z,13.15
2022-09-10T02:34:51.568Z,13.15
2022-09-10T02:35:51.574Z,13.18
2022-09-10T02:36:51.534Z,13.12
2022-09-10T02:37:51.515Z,13.11
2022-09-10T02:38:51.494Z,13.11
2022-09-10T02:39:51.501Z,13.04
2022-09-10T02:40:51.485Z,13.23
2022-09-10T02:41:51.441Z,13.09
2022-09-10T02:42:51.422Z,13.20
2022-09-10T02:43:51.403Z,13.19
2022-09-10T02:44:51.387Z,13.08
2022-09-10T02:45:51.423Z,13.04
2022-09-10T02:46:51.348Z,13.00
2022-09-10T02:47:51.328Z,13.12
2022-09-10T02:48:51.314Z,13.03
2022-09-10T02:49:51.297Z,13.12
2022-09-10T02:50:51.310Z,13.08
2022-09-10T02:51:51.259Z,12.98
2022-09-10T02:52:51.241Z,13.04
2022-09-10T02:53:51.222Z,13.01
2022-09-10T02:54:51.201Z,13.11
2022-09-10T02:55:51.208Z,13.11
2022-09-10T02:56:51.161Z,13.09
2022-09-10T02:57:51.141Z,13.12
2022-09-10T02:58:51.124Z,13.12
2022-09-10T02:59:51.102Z,13.13
2022-09-10T03:00:51.136Z,13.23
2022-09-10T03:01:51.147Z,13.23
2022-09-10T03:02:51.048Z,13.22
2022-09-10T03:03:51.026Z,13.20
2022-09-10T03:04:51.009Z,13.15
2022-09-10T03:05:51.017Z,13.25
2022-09-10T03:06:50.971Z,13.18
2022-09-10T03:07:50.951Z,13.22
2022-09-10T03:08:50.935Z,13.20
2022-09-10T03:09:50.920Z,13.19
2022-09-10T03:10:50.924Z,13.22
2022-09-10T03:11:50.877Z,13.19
2022-09-10T03:12:50.862Z,13.30
2022-09-10T03:13:50.843Z,13.27
2022-09-10T03:14:50.823Z,13.31
2022-09-10T03:15:50.837Z,13.25
2022-09-10T03:16:50.786Z,13.33
2022-09-10T03:17:50.766Z,13.35
2022-09-10T03:18:50.747Z,13.38
2022-09-10T03:19:50.729Z,13.38
2022-09-10T03:20:50.741Z,13.38
2022-09-10T03:21:50.696Z,13.35
2022-09-10T03:22:50.678Z,13.35
2022-09-10T03:23:50.664Z,13.20
2022-09-10T03:24:50.641Z,13.18
2022-09-10T03:25:50.655Z,13.20
2022-09-10T03:26:50.610Z,13.22
2022-09-10T03:27:50.589Z,13.12
2022-09-10T03:28:50.571Z,13.19
2022-09-10T03:29:50.554Z,13.11
2022-09-10T03:30:50.570Z,13.12
2022-09-10T03:31:50.547Z,13.18
2022-09-10T03:32:50.497Z,13.09
2022-09-10T03:33:50.479Z,13.05
2022-09-10T03:34:50.459Z,13.11
2022-09-10T03:35:50.466Z,13.11
2022-09-10T03:36:50.419Z,13.04
2022-09-10T03:37:50.406Z,13.00
2022-09-10T03:38:50.393Z,13.05
2022-09-10T03:39:50.408Z,13.08
2022-09-10T03:40:50.376Z,13.11
2022-09-10T03:41:50.335Z,13.12
2022-09-10T03:42:50.313Z,12.97
2022-09-10T03:43:50.289Z,13.11
2022-09-10T03:44:50.269Z,13.00
2022-09-10T03:45:50.333Z,13.00
2022-09-10T03:46:50.235Z,12.97
2022-09-10T03:47:50.215Z,12.97
2022-09-10T03:48:55.081Z,13.01
2022-09-10T03:49:52.179Z,13.05
2022-09-10T03:50:50.188Z,13.01
2022-09-10T03:51:50.143Z,13.01
2022-09-10T03:52:50.125Z,13.04
2022-09-10T03:53:50.109Z,13.00
2022-09-10T03:54:50.090Z,12.97
2022-09-10T03:55:50.099Z,12.93
2022-09-10T03:56:50.056Z,12.98
2022-09-10T03:57:50.035Z,13.00
2022-09-10T03:58:50.024Z,13.00
2022-09-10T03:59:49.998Z,12.94
2022-09-10T04:00:50.031Z,12.95
2022-09-10T04:01:49.993Z,12.93
2022-09-10T04:02:49.970Z,13.00
2022-09-10T04:03:49.923Z,12.95
2022-09-10T04:04:49.924Z,13.03
2022-09-10T04:05:49.917Z,12.85
2022-09-10T04:06:49.869Z,12.91
2022-09-10T04:07:49.863Z,12.78
2022-09-10T04:08:49.837Z,12.82
2022-09-10T04:09:49.818Z,12.80
2022-09-10T04:10:49.831Z,12.78
2022-09-10T04:11:49.783Z,12.72
2022-09-10T04:12:49.762Z,12.80
2022-09-10T04:13:49.752Z,12.79
2022-09-10T04:14:49.726Z,12.78
2022-09-10T04:15:49.735Z,12.76
2022-09-10T04:16:49.756Z,12.65
2022-09-10T04:17:49.674Z,12.75
2022-09-10T04:18:49.652Z,12.79
2022-09-10T04:19:49.634Z,12.72
2022-09-10T04:20:49.617Z,12.73
2022-09-10T04:21:49.628Z,12.62
2022-09-10T04:22:49.585Z,12.70
2022-09-10T04:23:49.563Z,12.70
2022-09-10T04:24:49.540Z,12.75
2022-09-10T04:25:49.528Z,12.70
2022-09-10T04:26:49.536Z,12.61
2022-09-10T04:27:49.495Z,12.72
2022-09-10T04:28:49.478Z,12.75
2022-09-10T04:29:49.453Z,12.68
2022-09-10T04:30:49.438Z,12.79
2022-09-10T04:31:49.473Z,12.76
2022-09-10T04:32:49.400Z,12.75
2022-09-10T04:33:49.378Z,12.83
2022-09-10T04:34:49.364Z,12.87
2022-09-10T04:35:49.343Z,12.83
2022-09-10T04:36:49.355Z,12.86
2022-09-10T04:37:49.310Z,12.98
2022-09-10T04:38:49.289Z,12.91
2022-09-10T04:39:49.323Z,12.93
2022-09-10T04:40:49.255Z,12.97
2022-09-10T04:41:49.266Z,12.97
2022-09-10T04:42:49.222Z,13.03
2022-09-10T04:43:49.203Z,12.91
2022-09-10T04:44:49.207Z,12.95
2022-09-10T04:45:49.206Z,13.03
2022-09-10T04:46:49.175Z,12.94
2022-09-10T04:47:49.127Z,12.98
2022-09-10T04:48:49.111Z,12.90
2022-09-10T04:49:49.095Z,12.85
2022-09-10T04:51:14.404Z,12.94
2022-09-10T04:51:51.083Z,12.87
2022-09-10T04:52:49.040Z,12.93
2022-09-10T04:53:49.021Z,12.87
2022-09-10T04:54:49.000Z,12.87
2022-09-10T04:55:48.985Z,12.80
2022-09-10T04:56:48.993Z,12.90
2022-09-10T04:57:48.951Z,12.85
2022-09-10T04:58:48.931Z,12.76
2022-09-10T04:59:48.919Z,12.80
2022-09-10T05:00:48.920Z,12.83
2022-09-10T05:01:48.931Z,12.85
2022-09-10T05:02:48.862Z,12.86
2022-09-10T05:03:48.840Z,12.98
2022-09-10T05:04:48.819Z,13.04
2022-09-10T05:05:48.803Z,12.94
2022-09-10T05:06:48.812Z,12.95
2022-09-10T05:07:48.766Z,12.97
2022-09-10T05:08:48.750Z,12.93
2022-09-10T05:09:48.731Z,13.04
2022-09-10T05:10:48.708Z,12.97
2022-09-10T05:11:48.721Z,13.05
2022-09-10T05:12:48.673Z,13.00
2022-09-10T05:13:48.654Z,13.16
2022-09-10T05:14:48.632Z,13.18
2022-09-10T05:15:48.616Z,13.05
2022-09-10T05:16:48.689Z,13.11
2022-09-10T05:17:48.582Z,13.12
2022-09-10T05:18:48.565Z,13.18
2022-09-10T05:19:48.552Z,13.13
2022-09-10T05:20:48.533Z,13.22
2022-09-10T05:21:48.541Z,13.41
2022-09-10T05:22:48.496Z,13.59
2022-09-10T05:23:48.476Z,13.49
2022-09-10T05:24:48.458Z,13.59
2022-09-10T05:25:48.444Z,13.56
2022-09-10T05:26:48.450Z,13.50
2022-09-10T05:27:48.407Z,13.47
2022-09-10T05:28:48.384Z,13.50
2022-09-10T05:29:48.366Z,13.47
2022-09-10T05:30:51.517Z,13.38
2022-09-10T05:31:49.388Z,13.47
2022-09-10T05:32:48.310Z,13.46
2022-09-10T05:33:48.309Z,13.44
2022-09-10T05:34:48.279Z,13.46
2022-09-10T05:35:48.285Z,13.31
2022-09-10T05:36:48.238Z,13.39
2022-09-10T05:37:48.214Z,13.37
2022-09-10T05:38:48.201Z,13.23
2022-09-10T05:39:48.201Z,13.22
2022-09-10T05:40:48.195Z,13.31
2022-09-10T05:41:48.173Z,13.41
2022-09-10T05:42:48.122Z,13.33
2022-09-10T05:43:48.112Z,13.39
2022-09-10T05:44:48.085Z,13.37
2022-09-10T05:45:48.131Z,13.41
2022-09-10T05:46:48.080Z,13.39
2022-09-10T05:47:48.034Z,13.27
2022-09-10T05:48:48.014Z,13.33
2022-09-10T05:49:47.994Z,13.44
2022-09-10T05:50:47.970Z,13.39
2022-09-10T05:51:47.985Z,13.46
2022-09-10T05:52:47.938Z,13.52
2022-09-10T05:53:47.917Z,13.46
2022-09-10T05:54:47.896Z,13.41
2022-09-10T05:55:47.878Z,13.46
2022-09-10T05:56:47.886Z,13.41
2022-09-10T05:57:47.845Z,13.41
2022-09-10T05:58:47.824Z,13.47
2022-09-10T05:59:47.805Z,13.47
2022-09-10T06:00:47.816Z,13.56
2022-09-10T06:01:47.786Z,13.50
2022-09-10T06:02:47.916Z,13.52
2022-09-10T06:03:47.734Z,13.52
2022-09-10T06:04:47.718Z,13.60
2022-09-10T06:05:47.734Z,13.57
2022-09-10T06:06:47.677Z,13.47
2022-09-10T06:07:47.654Z,13.49
2022-09-10T06:08:47.641Z,13.44
2022-09-10T06:09:47.619Z,13.46
2022-09-10T06:10:47.636Z,13.49
2022-09-10T06:11:47.581Z,13.47
2022-09-10T06:12:47.566Z,13.52
2022-09-10T06:13:47.552Z,13.56
2022-09-10T06:14:47.527Z,13.53
2022-09-10T06:15:47.533Z,13.46
2022-09-10T06:16:47.545Z,13.57
2022-09-10T06:17:47.465Z,13.57
2022-09-10T06:18:47.444Z,13.50
2022-09-10T06:19:47.428Z,13.52
2022-09-10T06:20:47.434Z,13.56
2022-09-10T06:21:47.395Z,13.59
2022-09-10T06:22:47.369Z,13.56
2022-09-10T06:23:47.348Z,13.59
2022-09-10T06:24:47.329Z,13.71
2022-09-10T06:25:47.335Z,13.60
2022-09-10T06:26:47.289Z,13.67
2022-09-10T06:27:47.274Z,13.63
2022-09-10T06:28:47.251Z,13.70
2022-09-10T06:29:47.235Z,13.68
2022-09-10T06:30:47.268Z,13.71
2022-09-10T06:31:47.199Z,13.72
2022-09-10T06:32:47.175Z,13.79
2022-09-10T06:33:47.155Z,13.75
2022-09-10T06:34:47.137Z,13.86
2022-09-10T06:35:49.259Z,13.79
2022-09-10T06:36:47.098Z,13.93
2022-09-10T06:37:47.076Z,13.97
2022-09-10T06:38:47.060Z,14.15
2022-09-10T06:39:47.055Z,14.10
2022-09-10T06:40:47.040Z,14.22
2022-09-10T06:41:49.696Z,14.11
2022-09-10T06:42:47.976Z,14.15
2022-09-10T06:43:46.954Z,14.14
2022-09-10T06:44:46.935Z,14.12
2022-09-10T06:45:46.972Z,14.12
2022-09-10T06:48:37.186Z,14.17
2022-09-10T06:48:48.959Z,14.04
2022-09-10T06:49:47.838Z,14.18
2022-09-10T06:50:46.847Z,14.10
2022-09-10T06:51:46.801Z,14.25
2022-09-10T06:52:46.777Z,14.14
2022-09-10T06:53:46.763Z,14.15
2022-09-10T06:54:46.737Z,14.22
2022-09-10T06:55:46.749Z,14.23
2022-09-10T06:56:46.697Z,14.29
2022-09-10T06:57:46.674Z,14.37
2022-09-10T06:58:46.652Z,14.32
2022-09-10T06:59:46.634Z,14.35
2022-09-10T07:00:46.638Z,14.54
2022-09-10T07:01:46.634Z,14.54
2022-09-10T07:02:46.573Z,14.50
2022-09-10T07:03:46.561Z,14.40
2022-09-10T07:04:46.536Z,14.48
2022-09-10T07:05:46.530Z,14.47
2022-09-10T07:06:47.486Z,14.55
2022-09-10T07:07:46.470Z,14.59
2022-09-10T07:08:46.446Z,14.48
2022-09-10T07:09:46.428Z,14.54
2022-09-10T07:10:46.433Z,14.58
2022-09-10T07:11:46.390Z,14.59
2022-09-10T07:12:46.364Z,14.72
2022-09-10T07:13:46.346Z,14.73
2022-09-10T07:14:46.318Z,14.89
2022-09-10T07:15:46.431Z,14.88
2022-09-10T07:16:46.281Z,15.00
2022-09-10T07:17:46.257Z,15.09
2022-09-10T07:18:46.233Z,15.04
2022-09-10T07:19:46.213Z,15.09
2022-09-10T07:20:46.216Z,15.19
2022-09-10T07:21:46.173Z,15.18
2022-09-10T07:22:46.152Z,15.21
2022-09-10T07:23:46.127Z,15.33
2022-09-10T07:24:46.111Z,15.35
2022-09-10T07:25:46.113Z,15.29
2022-09-10T07:26:46.069Z,15.18
2022-09-10T07:27:46.045Z,15.31
2022-09-10T07:28:46.020Z,15.37
2022-09-10T07:29:46.001Z,15.40
2022-09-10T07:30:46.040Z,15.31
2022-09-10T07:31:45.962Z,15.31
2022-09-10T07:32:45.937Z,15.24
2022-09-10T07:33:45.915Z,15.24
2022-09-10T07:34:45.892Z,15.39
2022-09-10T07:35:45.900Z,15.35
2022-09-10T07:36:45.845Z,15.42
2022-09-10T07:37:45.822Z,15.46
2022-09-10T07:38:45.799Z,15.52
2022-09-10T07:39:45.796Z,15.58
2022-09-10T07:40:45.779Z,15.51
2022-09-10T07:41:45.734Z,15.57
2022-09-10T07:42:45.712Z,15.70
2022-09-10T07:43:45.698Z,15.67
2022-09-10T07:44:45.669Z,15.83
2022-09-10T07:45:45.728Z,16.17
2022-09-10T07:46:45.617Z,16.16
2022-09-10T07:47:45.595Z,16.26
2022-09-10T07:48:45.570Z,16.38
2022-09-10T07:49:45.548Z,16.50
2022-09-10T07:50:45.557Z,16.46
2022-09-10T07:51:45.508Z,16.51
2022-09-10T07:52:45.486Z,16.64
2022-09-10T07:53:50.496Z,16.79
2022-09-10T07:54:47.439Z,16.83
2022-09-10T07:55:45.442Z,16.84
2022-09-10T07:56:45.395Z,16.94
2022-09-10T07:57:46.369Z,16.96
2022-09-10T07:58:45.346Z,16.79
2022-09-10T07:59:45.325Z,16.58
2022-09-10T08:00:45.325Z,16.36
2022-09-10T08:01:45.310Z,16.31
2022-09-10T08:02:45.252Z,16.08
2022-09-10T08:03:45.233Z,16.00
2022-09-10T08:04:45.209Z,15.91
2022-09-10T08:05:45.209Z,15.86
2022-09-10T08:06:46.192Z,15.80
2022-09-10T08:07:45.144Z,15.88
2022-09-10T08:08:45.117Z,15.83
2022-09-10T08:09:45.095Z,15.79
2022-09-10T08:10:45.097Z,15.65
2022-09-10T08:11:45.048Z,15.54
2022-09-10T08:12:45.026Z,15.72
2022-09-10T08:13:45.003Z,15.58
2022-09-10T08:14:44.976Z,15.55
2022-09-10T08:15:45.008Z,15.54
2022-09-10T08:16:45.931Z,15.43
2022-09-10T08:17:44.906Z,15.47
2022-09-10T08:18:44.888Z,15.49
2022-09-10T08:19:44.861Z,15.68
2022-09-10T08:20:44.871Z,15.65
2022-09-10T08:21:44.819Z,15.77
2022-09-10T08:22:44.795Z,15.91
2022-09-10T08:23:44.772Z,16.01
2022-09-10T08:24:44.754Z,16.05
2022-09-10T08:25:44.754Z,16.20
2022-09-10T08:26:44.709Z,16.32
2022-09-10T08:27:44.686Z,16.35
2022-09-10T08:28:44.671Z,16.39
2022-09-10T08:29:44.646Z,16.42
2022-09-10T08:30:44.702Z,16.38
2022-09-10T08:31:44.596Z,16.33
2022-09-10T08:32:44.574Z,16.31
2022-09-10T08:33:44.559Z,16.49
2022-09-10T08:34:44.532Z,16.41
2022-09-10T08:35:44.540Z,16.53
2022-09-10T08:36:44.499Z,16.69
2022-09-10T08:37:44.469Z,16.81
2022-09-10T08:38:44.446Z,16.93
2022-09-10T08:39:44.484Z,17.11
2022-09-10T08:40:44.428Z,16.97
2022-09-10T08:41:44.378Z,16.87
2022-09-10T08:42:44.357Z,16.86
2022-09-10T08:43:44.337Z,16.75
2022-09-10T08:44:44.316Z,16.79
2022-09-10T08:45:44.384Z,16.78
2022-09-10T08:46:44.293Z,17.01
2022-09-10T08:47:44.248Z,17.04
2022-09-10T08:48:44.222Z,16.84
2022-09-10T08:49:44.200Z,16.71
2022-09-10T08:50:44.237Z,16.68
2022-09-10T08:51:44.156Z,16.58
2022-09-10T08:52:44.133Z,16.50
2022-09-10T08:53:44.111Z,16.57
2022-09-10T08:54:44.089Z,16.51
2022-09-10T08:55:48.293Z,16.53
2022-09-10T08:56:45.050Z,16.39
2022-09-10T08:57:44.024Z,16.36
2022-09-10T08:58:44.001Z,16.42
2022-09-10T08:59:43.979Z,16.54
2022-09-10T09:00:43.983Z,16.57
2022-09-10T09:01:43.964Z,16.61
2022-09-10T09:02:50.164Z,16.76
2022-09-10T09:03:45.896Z,16.78
2022-09-10T09:04:43.871Z,16.94
2022-09-10T09:05:43.878Z,17.14
2022-09-10T09:06:43.826Z,17.71
2022-09-10T09:07:43.803Z,18.15
2022-09-10T09:08:43.779Z,18.29
2022-09-10T09:09:43.757Z,18.10
2022-09-10T09:10:43.762Z,18.11
2022-09-10T09:11:43.711Z,18.13
2022-09-10T09:12:43.691Z,18.15
2022-09-10T09:13:43.669Z,18.23
2022-09-10T09:14:43.652Z,18.50
2022-09-10T09:15:43.699Z,19.22
2022-09-10T09:16:43.600Z,19.81
2022-09-10T09:17:43.584Z,19.74
2022-09-10T09:18:43.562Z,19.85
2022-09-10T09:19:43.541Z,19.77
2022-09-10T09:20:43.548Z,19.76
2022-09-10T09:21:43.499Z,19.39
2022-09-10T09:22:43.483Z,19.33
2022-09-10T09:24:02.744Z,19.45
2022-09-10T09:24:45.440Z,19.62
2022-09-10T09:25:43.445Z,19.66
2022-09-10T09:26:43.397Z,19.54
2022-09-10T09:27:43.386Z,19.51
2022-09-10T09:28:43.355Z,19.52
2022-09-10T09:29:43.340Z,19.55
2022-09-10T09:30:43.386Z,19.48
2022-09-10T09:31:43.296Z,19.19
2022-09-10T09:32:43.274Z,19.22
2022-09-10T09:33:43.248Z,19.30
2022-09-10T09:34:43.232Z,19.40
2022-09-10T09:35:43.238Z,19.55
2022-09-10T09:36:43.189Z,19.48
2022-09-10T09:37:43.179Z,19.33
2022-09-10T09:38:43.153Z,19.18
2022-09-10T09:39:43.163Z,18.93
2022-09-10T09:40:43.145Z,18.63
2022-09-10T09:41:43.099Z,18.58
2022-09-10T09:42:43.073Z,18.66
2022-09-10T09:43:43.050Z,18.81
2022-09-10T09:44:43.034Z,19.08
2022-09-10T09:45:43.086Z,19.18
2022-09-10T09:46:42.996Z,19.22
2022-09-10T09:47:42.974Z,18.98
2022-09-10T09:48:42.953Z,18.86
2022-09-10T09:49:42.936Z,18.77
2022-09-10T09:50:42.940Z,18.70
2022-09-10T09:51:42.896Z,18.65
2022-09-10T09:52:42.874Z,18.41
2022-09-10T09:53:47.705Z,18.34
2022-09-10T09:55:12.772Z,18.29
2022-09-10T09:55:44.846Z,18.19
2022-09-10T09:56:42.798Z,17.98
2022-09-10T09:57:43.152Z,17.95
2022-09-10T09:58:42.759Z,17.97
2022-09-10T09:59:42.735Z,17.86
2022-09-10T10:00:43.743Z,18.00
2022-09-10T10:01:42.822Z,17.97
2022-09-10T10:02:42.677Z,17.86
2022-09-10T10:03:42.661Z,17.70
2022-09-10T10:04:42.645Z,17.60
2022-09-10T10:05:42.652Z,17.57
2022-09-10T10:06:42.599Z,17.54
2022-09-10T10:07:42.576Z,17.46
2022-09-10T10:08:42.559Z,17.29
2022-09-10T10:09:42.538Z,17.23
2022-09-10T10:10:42.545Z,17.15
2022-09-10T10:11:42.498Z,17.22
2022-09-10T10:12:42.484Z,17.31
2022-09-10T10:13:42.462Z,17.38
2022-09-10T10:14:42.435Z,17.44
2022-09-10T10:15:42.563Z,17.46
2022-09-10T10:16:42.394Z,17.48
2022-09-10T10:17:42.373Z,17.46
2022-09-10T10:18:42.352Z,17.54
2022-09-10T10:19:42.358Z,17.51
2022-09-10T10:20:42.310Z,17.60
2022-09-10T10:21:42.292Z,17.89
2022-09-10T10:22:42.273Z,18.03
2022-09-10T10:23:42.243Z,18.11
2022-09-10T10:24:42.253Z,18.13
2022-09-10T10:25:42.208Z,18.20
2022-09-10T10:26:42.187Z,18.43
2022-09-10T10:27:42.167Z,18.62
2022-09-10T10:28:42.144Z,18.73
2022-09-10T10:29:42.152Z,18.75
2022-09-10T10:30:42.170Z,19.00
2022-09-10T10:31:42.082Z,18.99
2022-09-10T10:32:42.061Z,18.95
2022-09-10T10:33:42.042Z,19.14
2022-09-10T10:34:42.053Z,18.89
2022-09-10T10:35:42.000Z,18.80
2022-09-10T10:36:41.985Z,18.80
2022-09-10T10:37:41.994Z,19.18
2022-09-10T10:38:41.938Z,19.24
2022-09-10T10:39:41.976Z,19.63
2022-09-10T10:40:41.909Z,19.86
2022-09-10T10:41:41.885Z,20.09
2022-09-10T10:42:41.866Z,19.94
2022-09-10T10:43:41.840Z,19.76
2022-09-10T10:44:41.828Z,19.81
2022-09-10T10:45:41.844Z,19.85
2022-09-10T10:46:41.873Z,20.06
2022-09-10T10:47:41.768Z,20.07
2022-09-10T10:48:41.748Z,20.10
2022-09-10T10:49:41.728Z,20.16
2022-09-10T10:50:41.740Z,20.22
2022-09-10T10:51:41.694Z,20.22
2022-09-10T10:52:41.674Z,20.43
2022-09-10T10:53:41.651Z,20.63
2022-09-10T10:54:41.628Z,20.65
2022-09-10T10:55:41.643Z,20.96
2022-09-10T10:56:41.595Z,21.07
2022-09-10T10:57:41.575Z,21.35
2022-09-10T10:58:41.559Z,21.48
2022-09-10T10:59:41.537Z,21.42
2022-09-10T11:00:41.548Z,21.40
2022-09-10T11:01:41.595Z,21.55
2022-09-10T11:02:41.551Z,21.64
2022-09-10T11:03:41.461Z,21.55
2022-09-10T11:04:41.441Z,21.30
2022-09-10T11:05:41.453Z,20.78
2022-09-10T11:06:41.410Z,20.55
2022-09-10T11:07:41.385Z,20.32
2022-09-10T11:08:41.366Z,20.09
2022-09-10T11:09:41.349Z,19.94
2022-09-10T11:10:41.355Z,19.79
2022-09-10T11:11:41.309Z,19.82
2022-09-10T11:12:41.287Z,19.79
2022-09-10T11:13:41.270Z,20.00
2022-09-10T11:14:41.315Z,20.13
2022-09-10T11:15:41.268Z,20.26
2022-09-10T11:16:41.211Z,20.37
2022-09-10T11:17:41.191Z,20.18
2022-09-10T11:18:41.274Z,20.29
2022-09-10T11:19:41.154Z,20.34
2022-09-10T11:20:41.160Z,20.40
2022-09-10T11:21:41.117Z,20.43
2022-09-10T11:22:41.096Z,20.26
2022-09-10T11:23:41.078Z,20.22
2022-09-10T11:24:41.066Z,20.26
2022-09-10T11:25:41.071Z,20.18
2022-09-10T11:26:41.021Z,20.41
2022-09-10T11:27:41.004Z,20.59
2022-09-10T11:28:41.100Z,20.72
2022-09-10T11:29:40.963Z,20.72
2022-09-10T11:30:41.014Z,20.85
2022-09-10T11:31:40.929Z,21.06
2022-09-10T11:32:40.907Z,20.97
2022-09-10T11:33:40.891Z,21.03
2022-09-10T11:34:40.871Z,21.37
2022-09-10T11:35:40.877Z,21.62
2022-09-10T11:36:40.867Z,21.60
2022-09-10T11:37:40.809Z,21.91
2022-09-10T11:38:40.921Z,22.14
2022-09-10T11:39:40.808Z,22.15
2022-09-10T11:40:40.779Z,22.13
2022-09-10T11:41:40.730Z,21.72
2022-09-10T11:42:40.716Z,21.45
2022-09-10T11:43:40.697Z,21.35
2022-09-10T11:44:40.676Z,21.27
2022-09-10T11:45:40.687Z,20.97
2022-09-10T11:46:40.668Z,20.60
2022-09-10T11:47:40.623Z,20.63
2022-09-10T11:48:40.680Z,20.72
2022-09-10T11:49:40.585Z,20.70
2022-09-10T11:50:40.595Z,20.70
2022-09-10T11:51:40.570Z,20.70
2022-09-10T11:52:40.526Z,20.78
2022-09-10T11:53:40.507Z,20.55
2022-09-10T11:54:40.487Z,20.65
2022-09-10T11:55:40.494Z,20.63
2022-09-10T11:56:40.450Z,20.48
2022-09-10T11:57:40.430Z,20.59
2022-09-10T11:58:40.535Z,20.66
2022-09-10T11:59:40.390Z,20.47
2022-09-10T12:00:40.402Z,20.32
2022-09-10T12:01:40.352Z,20.22
2022-09-10T12:02:40.337Z,20.13
2022-09-10T12:03:40.515Z,20.03
2022-09-10T12:04:41.404Z,19.84
2022-09-10T12:05:40.310Z,19.73
2022-09-10T12:06:40.266Z,19.89
2022-09-10T12:07:40.250Z,19.89
2022-09-10T12:08:40.232Z,20.02
2022-09-10T12:09:40.208Z,19.99
2022-09-10T12:10:40.216Z,19.76
2022-09-10T12:11:40.177Z,19.84
2022-09-10T12:12:40.152Z,19.91
2022-09-10T12:13:40.209Z,19.81
2022-09-10T12:14:40.116Z,19.63
2022-09-10T12:15:40.185Z,19.67
2022-09-10T12:16:40.084Z,19.67
2022-09-10T12:17:40.060Z,19.74
2022-09-10T12:18:42.775Z,19.74
2022-09-10T12:19:41.022Z,19.76
2022-09-10T12:20:40.031Z,19.52
2022-09-10T12:21:39.983Z,19.39
2022-09-10T12:22:39.967Z,19.44
2022-09-10T12:23:40.101Z,19.51
2022-09-10T12:24:39.933Z,19.37
2022-09-10T12:25:39.936Z,19.26
2022-09-10T12:26:39.920Z,19.15
2022-09-10T12:27:39.879Z,19.09
2022-09-10T12:28:39.856Z,19.27
2022-09-10T12:29:39.833Z,19.21
2022-09-10T12:30:39.818Z,19.18
2022-09-10T12:31:39.827Z,19.07
2022-09-10T12:32:39.779Z,18.80
2022-09-10T12:33:39.896Z,18.71
2022-09-10T12:34:39.742Z,18.84
2022-09-10T12:35:39.747Z,18.75
2022-09-10T12:36:39.701Z,18.77
2022-09-10T12:37:39.687Z,18.65
2022-09-10T12:38:39.668Z,18.70
2022-09-10T12:39:39.687Z,18.89
2022-09-10T12:40:39.655Z,18.84
2022-09-10T12:41:39.610Z,19.12
2022-09-10T12:42:39.586Z,19.15
2022-09-10T12:43:39.702Z,19.16
2022-09-10T12:44:39.544Z,19.19
2022-09-10T12:45:39.554Z,19.09
2022-09-10T12:46:43.037Z,19.09
2022-09-10T12:47:41.488Z,19.22
2022-09-10T12:48:39.564Z,19.33
2022-09-10T12:49:39.446Z,19.47
2022-09-10T12:50:39.428Z,19.34
2022-09-10T12:51:39.432Z,19.36
2022-09-10T12:52:39.390Z,19.24
2022-09-10T12:53:39.502Z,19.00